aviador You're here:

K2C8 Decoded Metar

in
Report Time2018-01-18 11:15:00
UTC Time2018-01-18 11:40:24
Flight Rules vfr VFR
Wind020° at 05 kt
W.Rank020° ranks 25
Current wind is below 020° avg. (7.4)
Visibility9999 m
Phenomena:N/A
Clouds:N/A
Expected CloudBase > 1,200 ft AGL from Temp-Dew spread
CeilingNone
Temp-3°C
Dew Point-6°C (80% RH)
AAT-7.5°C
QNH1008 hPa
Raw Report
K2C8 181115Z AUTO 02005KT 10SM M03/M06 A2976 RMK AO2=

Extra information for K2C8:More info

Social comments